createdAt,value
2023-05-25T00:02:25.013Z,86.40
2023-05-25T00:04:52.126Z,86.40
2023-05-25T00:07:19.095Z,86.10
2023-05-25T00:09:46.556Z,86.50
2023-05-25T00:12:14.484Z,86.20
2023-05-25T00:14:41.396Z,86.40
2023-05-25T00:17:10.886Z,86.70
2023-05-25T00:19:42.288Z,86.70
2023-05-25T00:22:10.410Z,86.50
2023-05-25T00:24:38.867Z,86.60
2023-05-25T00:27:07.152Z,86.30
2023-05-25T00:29:35.026Z,86.40
2023-05-25T00:32:02.503Z,86.00
2023-05-25T00:34:29.218Z,85.80
2023-05-25T00:36:55.965Z,86.00
2023-05-25T00:39:22.875Z,85.80
2023-05-25T00:41:50.148Z,85.90
2023-05-25T00:44:21.336Z,85.80
2023-05-25T00:46:51.463Z,86.00
2023-05-25T00:49:25.167Z,86.20
2023-05-25T00:51:52.696Z,86.40
2023-05-25T00:54:20.182Z,86.80
2023-05-25T00:56:51.108Z,86.70
2023-05-25T00:59:28.626Z,86.90
2023-05-25T01:01:56.330Z,86.70
2023-05-25T01:04:28.341Z,86.60
2023-05-25T01:06:58.329Z,86.70
2023-05-25T01:09:28.114Z,86.80
2023-05-25T01:11:56.550Z,86.80
2023-05-25T01:14:24.859Z,86.70
2023-05-25T01:16:52.264Z,86.80
2023-05-25T01:19:19.072Z,87.00
2023-05-25T01:22:02.512Z,86.90
2023-05-25T01:24:47.869Z,87.10
2023-05-25T01:27:28.064Z,87.00
2023-05-25T01:29:57.302Z,87.30
2023-05-25T01:32:25.087Z,87.30
2023-05-25T01:34:55.496Z,87.30
2023-05-25T01:37:24.622Z,87.50
2023-05-25T01:39:51.331Z,87.60
2023-05-25T01:42:18.213Z,87.70
2023-05-25T01:44:45.423Z,87.80
2023-05-25T01:47:21.291Z,88.10
2023-05-25T01:50:03.274Z,87.90
2023-05-25T01:52:34.588Z,88.00
2023-05-25T01:55:06.164Z,88.00
2023-05-25T01:57:37.521Z,88.30
2023-05-25T02:00:05.687Z,88.50
2023-05-25T02:02:42.711Z,88.50
2023-05-25T02:05:10.056Z,88.20
2023-05-25T02:07:36.984Z,87.50
2023-05-25T02:10:04.136Z,87.50
2023-05-25T02:12:30.960Z,88.20
2023-05-25T02:14:58.394Z,88.20
2023-05-25T02:17:28.620Z,88.10
2023-05-25T02:19:56.012Z,88.30
2023-05-25T02:22:22.879Z,87.90
2023-05-25T02:24:49.726Z,87.70
2023-05-25T02:27:16.720Z,87.80
2023-05-25T02:29:43.709Z,87.90
2023-05-25T02:32:10.541Z,88.60
2023-05-25T02:34:37.233Z,88.40
2023-05-25T02:37:04.287Z,88.40
2023-05-25T02:39:31.030Z,88.60
2023-05-25T02:41:58.946Z,88.80
2023-05-25T02:44:26.799Z,89.30
2023-05-25T02:46:54.931Z,88.80
2023-05-25T02:49:23.319Z,88.90
2023-05-25T02:51:50.063Z,88.50
2023-05-25T02:54:17.205Z,88.50
2023-05-25T02:56:44.155Z,88.60
2023-05-25T02:59:13.588Z,88.70
2023-05-25T03:01:40.712Z,88.80
2023-05-25T03:04:07.631Z,88.90
2023-05-25T03:06:37.834Z,89.30
2023-05-25T03:09:09.738Z,88.90
2023-05-25T03:11:38.176Z,89.00
2023-05-25T03:14:05.381Z,88.60
2023-05-25T03:16:36.311Z,88.60
2023-05-25T03:19:05.398Z,88.50
2023-05-25T03:21:34.434Z,88.50
2023-05-25T03:24:01.149Z,88.10
2023-05-25T03:26:28.875Z,88.40
2023-05-25T03:28:55.688Z,88.10
2023-05-25T03:31:23.475Z,88.60
2023-05-25T03:33:50.382Z,88.50
2023-05-25T03:36:18.652Z,89.10
2023-05-25T03:38:45.557Z,89.70
2023-05-25T03:41:12.264Z,89.60
2023-05-25T03:43:39.018Z,89.60
2023-05-25T03:46:07.702Z,89.30
2023-05-25T03:48:34.522Z,89.50
2023-05-25T03:51:01.247Z,90.00
2023-05-25T03:53:28.038Z,90.50
2023-05-25T03:55:54.916Z,90.80
2023-05-25T03:58:21.657Z,90.60
2023-05-25T04:00:51.749Z,90.40
2023-05-25T04:03:19.036Z,90.10
2023-05-25T04:05:46.105Z,90.20
2023-05-25T04:08:18.072Z,90.20
2023-05-25T04:10:46.220Z,90.10
2023-05-25T04:13:13.338Z,89.50
2023-05-25T04:15:40.605Z,89.30
2023-05-25T04:18:11.860Z,89.20
2023-05-25T04:20:38.700Z,89.20
2023-05-25T04:23:06.662Z,89.50
2023-05-25T04:25:34.050Z,89.10
2023-05-25T04:28:01.490Z,89.20
2023-05-25T04:30:48.734Z,88.90
2023-05-25T04:33:39.619Z,89.30
2023-05-25T04:36:32.636Z,89.20
2023-05-25T04:39:04.261Z,89.10
2023-05-25T04:41:33.873Z,89.40
2023-05-25T04:44:09.755Z,89.20
2023-05-25T04:46:42.502Z,88.90
2023-05-25T04:49:14.994Z,88.50
2023-05-25T04:51:41.696Z,88.80
2023-05-25T04:54:08.755Z,89.00
2023-05-25T04:56:35.555Z,88.50
2023-05-25T04:59:04.359Z,88.60
2023-05-25T05:01:31.345Z,89.00
2023-05-25T05:04:01.887Z,88.90
2023-05-25T05:06:28.692Z,88.80
2023-05-25T05:08:56.305Z,89.00
2023-05-25T05:11:23.600Z,88.60
2023-05-25T05:13:50.747Z,88.40
2023-05-25T05:16:17.616Z,88.70
2023-05-25T05:18:44.330Z,88.90
2023-05-25T05:21:11.448Z,88.80
2023-05-25T05:23:38.299Z,88.60
2023-05-25T05:26:07.175Z,88.10
2023-05-25T05:28:34.208Z,88.20
2023-05-25T05:31:01.265Z,89.10
2023-05-25T05:33:28.177Z,88.70
2023-05-25T05:35:54.996Z,88.90
2023-05-25T05:38:23.721Z,89.40
2023-05-25T05:40:50.454Z,89.50
2023-05-25T05:43:22.976Z,89.30
2023-05-25T05:45:49.998Z,89.20
2023-05-25T05:48:16.814Z,88.60
2023-05-25T05:50:44.368Z,88.70
2023-05-25T05:53:12.797Z,88.90
2023-05-25T05:55:39.653Z,89.00
2023-05-25T05:58:06.622Z,88.80
2023-05-25T06:00:33.816Z,88.40
2023-05-25T06:03:01.234Z,88.50
2023-05-25T06:05:29.541Z,88.40
2023-05-25T06:07:57.696Z,88.30
2023-05-25T06:10:24.427Z,87.80
2023-05-25T06:12:52.547Z,87.60
2023-05-25T06:15:19.385Z,87.60
2023-05-25T06:17:47.921Z,87.00
2023-05-25T06:20:15.683Z,86.90
2023-05-25T06:22:42.874Z,86.70
2023-05-25T06:25:10.724Z,86.20
2023-05-25T06:27:38.038Z,85.90
2023-05-25T06:30:05.757Z,85.60
2023-05-25T06:32:32.530Z,85.60
2023-05-25T06:34:59.387Z,84.80
2023-05-25T06:37:27.384Z,85.10
2023-05-25T06:39:56.904Z,85.10
2023-05-25T06:42:24.346Z,84.90
2023-05-25T06:44:55.461Z,84.80
2023-05-25T06:47:22.301Z,84.70
2023-05-25T06:49:49.759Z,84.80
2023-05-25T06:52:16.526Z,84.80
2023-05-25T06:54:43.560Z,84.60
2023-05-25T06:57:10.473Z,84.80
2023-05-25T06:59:37.492Z,85.00
2023-05-25T07:02:04.212Z,85.20
2023-05-25T07:04:31.173Z,85.00
2023-05-25T07:06:57.940Z,84.30
2023-05-25T07:09:24.709Z,84.30
2023-05-25T07:11:51.414Z,84.10
2023-05-25T07:14:18.297Z,84.30
2023-05-25T07:16:45.177Z,84.50
2023-05-25T07:19:12.169Z,83.90
2023-05-25T07:21:38.998Z,83.80
2023-05-25T07:24:06.427Z,84.10
2023-05-25T07:26:34.137Z,84.00
2023-05-25T07:29:01.319Z,84.20
2023-05-25T07:31:28.092Z,83.60
2023-05-25T07:33:55.660Z,83.50
2023-05-25T07:36:24.688Z,83.60
2023-05-25T07:38:51.524Z,83.50
2023-05-25T07:41:18.333Z,83.50
2023-05-25T07:43:45.733Z,82.90
2023-05-25T07:46:12.508Z,83.30
2023-05-25T07:48:39.374Z,83.10
2023-05-25T07:51:07.025Z,82.80
2023-05-25T07:53:33.834Z,82.60
2023-05-25T07:56:00.761Z,82.20
2023-05-25T07:58:27.497Z,82.10
2023-05-25T08:00:54.294Z,82.00
2023-05-25T08:03:31.710Z,82.50
2023-05-25T08:06:07.397Z,82.40
2023-05-25T08:08:34.878Z,82.20
2023-05-25T08:11:02.722Z,82.00
2023-05-25T08:13:30.119Z,82.20
2023-05-25T08:15:56.841Z,81.70
2023-05-25T08:18:23.543Z,81.90
2023-05-25T08:20:50.516Z,81.90
2023-05-25T08:23:18.010Z,81.70
2023-05-25T08:25:44.908Z,80.90
2023-05-25T08:28:11.853Z,81.10
2023-05-25T08:30:38.618Z,81.20
2023-05-25T08:33:06.874Z,81.20
2023-05-25T08:35:33.661Z,81.50
2023-05-25T08:41:17.586Z,81.20
2023-05-25T08:46:53.002Z,80.40
2023-05-25T10:34:50.542Z,75.30
2023-05-25T10:37:18.622Z,74.80
2023-05-25T10:39:46.695Z,74.90
2023-05-25T10:42:13.565Z,74.40
2023-05-25T10:44:42.388Z,73.80
2023-05-25T10:47:10.203Z,73.40
2023-05-25T10:49:58.713Z,73.20
2023-05-25T10:52:29.851Z,73.50
2023-05-25T10:55:05.260Z,73.10
2023-05-25T10:57:32.650Z,73.20
2023-05-25T11:00:10.679Z,73.10
2023-05-25T11:02:55.553Z,73.40
2023-05-25T11:05:28.882Z,73.50
2023-05-25T11:07:57.302Z,73.10
2023-05-25T11:10:53.172Z,73.00
2023-05-25T11:13:39.833Z,73.60
2023-05-25T11:16:21.408Z,72.60
2023-05-25T11:18:55.995Z,72.80
2023-05-25T11:21:30.330Z,72.50
2023-05-25T11:24:04.354Z,71.90
2023-05-25T11:26:33.637Z,72.40
2023-05-25T11:30:08.176Z,73.00
2023-05-25T11:32:39.932Z,72.20
2023-05-25T11:35:09.363Z,71.70
2023-05-25T11:37:37.528Z,71.90
2023-05-25T11:40:07.465Z,71.60
2023-05-25T11:42:34.686Z,71.90
2023-05-25T11:45:33.466Z,71.50
2023-05-25T11:48:01.034Z,71.50
2023-05-25T11:50:28.472Z,71.20
2023-05-25T11:52:56.002Z,70.50
2023-05-25T11:58:22.884Z,70.60
2023-05-25T12:12:52.218Z,69.90
2023-05-25T12:15:23.849Z,70.50
2023-05-25T12:17:52.070Z,69.90
2023-05-25T12:20:19.712Z,70.90
2023-05-25T12:22:47.325Z,71.00
2023-05-25T12:25:18.370Z,70.40
2023-05-25T12:27:45.096Z,70.00
2023-05-25T12:30:11.963Z,70.40
2023-05-25T12:33:03.825Z,71.10
2023-05-25T12:35:48.199Z,70.20
2023-05-25T12:38:19.716Z,71.00
2023-05-25T12:40:47.015Z,70.50
2023-05-25T12:43:15.242Z,70.90
2023-05-25T12:45:43.265Z,70.50
2023-05-25T12:48:10.695Z,69.80
2023-05-25T12:50:37.706Z,69.80
2023-05-25T12:53:05.170Z,70.40
2023-05-25T12:55:34.202Z,69.20
2023-05-25T12:58:06.165Z,69.20
2023-05-25T13:00:35.278Z,69.20
2023-05-25T13:03:03.378Z,68.90
2023-05-25T13:05:36.557Z,69.10
2023-05-25T13:08:04.435Z,69.90
2023-05-25T13:10:32.785Z,69.70
2023-05-25T13:12:59.865Z,69.20
2023-05-25T13:15:28.080Z,69.60
2023-05-25T13:17:56.401Z,68.90
2023-05-25T13:20:28.231Z,69.00
2023-05-25T13:22:58.058Z,68.50
2023-05-25T13:25:27.454Z,68.80
2023-05-25T13:27:55.064Z,68.80
2023-05-25T13:30:22.363Z,69.10
2023-05-25T13:32:51.585Z,69.40
2023-05-25T13:35:23.954Z,68.30
2023-05-25T13:37:51.148Z,69.00
2023-05-25T13:40:18.269Z,68.30
2023-05-25T13:42:45.090Z,68.90
2023-05-25T13:45:12.308Z,68.70
2023-05-25T13:47:39.559Z,69.40
2023-05-25T13:50:07.062Z,69.10
2023-05-25T13:52:33.756Z,68.70
2023-05-25T13:55:00.451Z,68.10
2023-05-25T13:57:27.134Z,69.40
2023-05-25T13:59:53.815Z,68.70
2023-05-25T14:02:20.588Z,69.20
2023-05-25T14:04:47.874Z,69.10
2023-05-25T14:07:14.750Z,69.10
2023-05-25T14:09:41.545Z,68.70
2023-05-25T14:12:08.443Z,68.70
2023-05-25T14:14:35.178Z,68.60
2023-05-25T14:17:01.953Z,69.10
2023-05-25T14:19:28.919Z,68.60
2023-05-25T14:22:11.916Z,68.50
2023-05-25T14:24:39.754Z,68.90
2023-05-25T14:27:09.333Z,68.50
2023-05-25T14:29:36.288Z,68.90
2023-05-25T14:32:03.238Z,68.50
2023-05-25T14:34:30.115Z,69.10
2023-05-25T14:36:56.847Z,68.20
2023-05-25T14:39:23.578Z,68.90
2023-05-25T14:41:50.530Z,68.50
2023-05-25T14:44:17.222Z,68.60
2023-05-25T14:46:43.956Z,68.60
2023-05-25T14:49:10.774Z,68.40
2023-05-25T14:51:38.117Z,68.40
2023-05-25T14:54:07.678Z,68.90
2023-05-25T14:56:34.892Z,69.20
2023-05-25T14:59:01.782Z,68.80
2023-05-25T15:01:29.335Z,69.20
2023-05-25T15:03:56.422Z,68.90
2023-05-25T15:06:23.335Z,69.30
2023-05-25T15:08:50.010Z,69.30
2023-05-25T15:11:18.075Z,69.10
2023-05-25T15:13:44.954Z,69.00
2023-05-25T15:16:12.894Z,69.20
2023-05-25T15:18:39.682Z,68.90
2023-05-25T15:21:06.515Z,68.40
2023-05-25T15:23:33.336Z,69.00
2023-05-25T15:26:04.428Z,69.10
2023-05-25T15:28:31.575Z,68.90
2023-05-25T15:31:00.753Z,69.00
2023-05-25T15:33:39.998Z,68.90
2023-05-25T15:36:10.881Z,69.30
2023-05-25T15:38:37.575Z,69.20
2023-05-25T15:41:04.446Z,69.10
2023-05-25T15:43:31.218Z,69.30
2023-05-25T15:45:57.903Z,69.10
2023-05-25T15:48:26.312Z,69.40
2023-05-25T15:50:53.202Z,69.40
2023-05-25T15:53:19.975Z,69.30
2023-05-25T15:55:46.752Z,69.20
2023-05-25T15:58:13.706Z,69.40
2023-05-25T16:00:40.434Z,69.30
2023-05-25T16:03:07.565Z,69.50
2023-05-25T16:05:34.267Z,69.20
2023-05-25T16:08:00.953Z,68.90
2023-05-25T16:10:27.649Z,69.30
2023-05-25T16:12:54.831Z,69.20
2023-05-25T16:15:22.890Z,69.40
2023-05-25T16:17:49.592Z,69.20
2023-05-25T16:20:16.384Z,69.20
2023-05-25T16:22:43.629Z,69.10
2023-05-25T16:25:10.720Z,69.20
2023-05-25T16:27:37.473Z,69.60
2023-05-25T16:30:04.785Z,69.10
2023-05-25T16:32:32.733Z,69.30
2023-05-25T16:34:59.568Z,69.50
2023-05-25T16:37:26.357Z,69.40
2023-05-25T16:39:53.210Z,69.20
2023-05-25T16:42:19.912Z,69.40
2023-05-25T16:44:46.614Z,69.60
2023-05-25T16:47:13.334Z,69.90
2023-05-25T16:49:40.021Z,69.80
2023-05-25T16:52:06.759Z,70.10
2023-05-25T16:54:33.453Z,70.30
2023-05-25T16:57:00.159Z,70.00
2023-05-25T16:59:26.879Z,70.00
2023-05-25T17:01:53.720Z,70.40
2023-05-25T17:04:20.522Z,70.50
2023-05-25T17:06:47.369Z,70.40
2023-05-25T17:09:14.128Z,70.80
2023-05-25T17:11:40.815Z,71.10
2023-05-25T17:14:07.530Z,70.60
2023-05-25T17:16:34.284Z,70.10
2023-05-25T17:19:01.107Z,70.10
2023-05-25T17:21:27.860Z,70.20
2023-05-25T17:23:54.533Z,70.00
2023-05-25T17:26:21.219Z,70.90
2023-05-25T17:28:48.818Z,71.10
2023-05-25T17:31:15.910Z,71.60
2023-05-25T17:33:43.437Z,71.50
2023-05-25T17:36:10.300Z,71.40
2023-05-25T17:38:38.019Z,71.40
2023-05-25T17:41:04.774Z,71.70
2023-05-25T17:43:31.449Z,72.40
2023-05-25T17:45:59.194Z,72.40
2023-05-25T17:48:25.958Z,72.30
2023-05-25T17:50:52.689Z,72.40
2023-05-25T17:53:19.449Z,72.10
2023-05-25T17:55:46.422Z,71.90
2023-05-25T17:58:13.169Z,72.20
2023-05-25T18:00:39.901Z,72.70
2023-05-25T18:03:06.797Z,73.00
2023-05-25T18:05:33.552Z,73.30
2023-05-25T18:08:00.716Z,73.70
2023-05-25T18:10:27.412Z,74.20
2023-05-25T18:12:54.171Z,74.50
2023-05-25T18:15:21.712Z,74.60
2023-05-25T18:17:49.298Z,74.30
2023-05-25T18:20:17.774Z,74.60
2023-05-25T18:22:44.842Z,75.30
2023-05-25T18:25:12.821Z,76.20
2023-05-25T18:27:39.707Z,76.40
2023-05-25T18:30:10.963Z,76.40
2023-05-25T18:32:38.236Z,77.10
2023-05-25T18:35:05.700Z,77.60
2023-05-25T18:37:35.627Z,78.50
2023-05-25T18:40:03.543Z,78.60
2023-05-25T18:42:30.648Z,78.60
2023-05-25T18:44:57.872Z,79.10
2023-05-25T18:47:26.380Z,79.40
2023-05-25T18:49:53.280Z,79.60
2023-05-25T18:52:20.452Z,80.10
2023-05-25T18:54:48.762Z,80.40
2023-05-25T18:57:16.366Z,80.50
2023-05-25T18:59:43.519Z,81.30
2023-05-25T19:02:10.455Z,81.10
2023-05-25T19:04:37.775Z,81.50
2023-05-25T19:07:04.788Z,81.30
2023-05-25T19:09:34.625Z,81.40
2023-05-25T19:12:07.303Z,81.70
2023-05-25T19:14:34.492Z,81.80
2023-05-25T19:17:01.548Z,81.90
2023-05-25T19:19:28.801Z,82.00
2023-05-25T19:21:56.229Z,82.00
2023-05-25T19:24:23.386Z,82.40
2023-05-25T19:26:50.877Z,82.70
2023-05-25T19:29:18.054Z,83.00
2023-05-25T19:31:45.009Z,82.50
2023-05-25T19:34:12.069Z,82.40
2023-05-25T19:36:39.241Z,82.80
2023-05-25T19:39:06.662Z,83.00
2023-05-25T19:41:33.680Z,82.80
2023-05-25T19:44:00.810Z,82.80
2023-05-25T19:46:27.868Z,82.90
2023-05-25T19:48:59.555Z,83.00
2023-05-25T19:51:26.693Z,82.80
2023-05-25T19:53:55.235Z,83.00
2023-05-25T19:56:23.076Z,83.00
2023-05-25T19:58:53.236Z,83.00
2023-05-25T20:01:20.064Z,83.00
2023-05-25T20:03:48.188Z,83.30
2023-05-25T20:06:15.442Z,83.80
2023-05-25T20:08:42.270Z,84.00
2023-05-25T20:11:10.768Z,84.30
2023-05-25T20:13:38.315Z,84.60
2023-05-25T20:16:11.228Z,84.60
2023-05-25T20:18:38.210Z,84.50
2023-05-25T20:21:10.391Z,84.60
2023-05-25T20:23:37.891Z,85.00
2023-05-25T20:26:04.814Z,85.00
2023-05-25T20:28:32.720Z,85.10
2023-05-25T20:31:19.708Z,84.90
2023-05-25T20:33:46.704Z,85.00
2023-05-25T20:36:22.699Z,85.40
2023-05-25T20:39:10.438Z,85.70
2023-05-25T20:41:40.113Z,85.50
2023-05-25T20:44:17.445Z,85.70
2023-05-25T20:46:44.329Z,85.90
2023-05-25T20:49:15.883Z,86.00
2023-05-25T20:51:53.071Z,86.10
2023-05-25T20:54:21.100Z,86.10
2023-05-25T20:56:57.167Z,85.90
2023-05-25T20:59:24.674Z,86.10
2023-05-25T21:01:52.211Z,86.20
2023-05-25T21:04:33.986Z,86.00
2023-05-25T21:07:00.767Z,86.00
2023-05-25T21:09:27.767Z,86.10
2023-05-25T21:11:54.680Z,85.70
2023-05-25T21:14:22.015Z,86.00
2023-05-25T21:16:50.003Z,86.50
2023-05-25T21:19:17.664Z,86.20
2023-05-25T21:21:44.721Z,86.10
2023-05-25T21:24:32.464Z,85.80
2023-05-25T21:26:59.246Z,85.80
2023-05-25T21:29:26.228Z,86.10
2023-05-25T21:31:57.032Z,86.30
2023-05-25T21:34:25.347Z,86.30
2023-05-25T21:36:52.725Z,86.30
2023-05-25T21:39:19.882Z,86.50
2023-05-25T21:41:48.125Z,86.70
2023-05-25T21:44:17.764Z,87.50
2023-05-25T21:46:45.016Z,87.90
2023-05-25T21:49:15.387Z,87.90
2023-05-25T21:51:42.562Z,87.90
2023-05-25T21:54:16.227Z,87.20
2023-05-25T21:56:43.095Z,87.00
2023-05-25T21:59:16.485Z,87.00
2023-05-25T22:01:43.567Z,86.70
2023-05-25T22:04:10.389Z,86.30
2023-05-25T22:06:37.548Z,86.00
2023-05-25T22:09:04.920Z,85.30
2023-05-25T22:11:31.781Z,84.70
2023-05-25T22:13:59.564Z,84.50
2023-05-25T22:16:26.364Z,84.00
2023-05-25T22:18:53.064Z,84.00
2023-05-25T22:21:20.385Z,84.30
2023-05-25T22:23:47.373Z,84.60
2023-05-25T22:26:14.122Z,85.10
2023-05-25T22:28:40.933Z,85.00
2023-05-25T22:31:07.896Z,84.90
2023-05-25T22:33:34.715Z,85.00
2023-05-25T22:36:01.422Z,84.50
2023-05-25T22:38:28.386Z,84.30
2023-05-25T22:40:55.389Z,84.00
2023-05-25T22:43:22.569Z,84.00
2023-05-25T22:45:49.511Z,84.20
2023-05-25T22:48:16.241Z,84.10
2023-05-25T22:50:43.298Z,84.60
2023-05-25T22:53:09.989Z,84.20
2023-05-25T22:55:36.772Z,84.20
2023-05-25T22:58:03.655Z,83.90
2023-05-25T23:00:33.474Z,84.30
2023-05-25T23:03:02.399Z,84.30
2023-05-25T23:05:30.988Z,84.40
2023-05-25T23:07:59.332Z,84.80
2023-05-25T23:10:26.164Z,84.50
2023-05-25T23:12:54.577Z,84.80
2023-05-25T23:15:22.392Z,84.80
2023-05-25T23:17:49.393Z,84.80
2023-05-25T23:20:16.362Z,84.80
2023-05-25T23:22:43.260Z,85.00
2023-05-25T23:25:10.366Z,84.80
2023-05-25T23:27:37.154Z,84.90
2023-05-25T23:30:05.382Z,84.80
2023-05-25T23:32:32.207Z,84.60
2023-05-25T23:34:58.948Z,84.80
2023-05-25T23:37:25.651Z,84.60
2023-05-25T23:39:52.874Z,84.60
2023-05-25T23:42:19.567Z,84.80
2023-05-25T23:44:46.680Z,84.80
2023-05-25T23:47:13.657Z,84.80
2023-05-25T23:49:41.507Z,84.80
2023-05-25T23:52:08.752Z,84.80
2023-05-25T23:54:35.826Z,85.30
2023-05-25T23:57:02.568Z,85.20
2023-05-25T23:59:29.406Z,85.40
